Terminal Aerodrome Forecast
Issued by NWS

Home | Current Version | Previous Version | Graphics & Text | Print | Product List | Glossary Off
Versions: 1 2 3 4 5 6 7 8 9 10 11 12 13 14 15 16 17

000
FTUS43 KICT 011736
TAFHUT
TAF
KHUT 011736Z 0118/0218 33027G36KT P6SM SCT015 BKN025
      TEMPO 0118/0120 -SN BKN015
     FM020100 34018G25KT P6SM SCT030
     FM020800 34011KT P6SM SKC
     FM021400 18009KT P6SM SKC=

USA.gov is the U.S. government's official web portal to all federal, state and local government web resources and services.